sensor_id;sensor_type;location;lat;lon;timestamp;temperature;humidity
19781;DHT22;10050;55.492;13.506;2023-05-07T00:02:06;3.90;99.90
19781;DHT22;10050;55.492;13.506;2023-05-07T00:04:33;3.90;99.90
19781;DHT22;10050;55.492;13.506;2023-05-07T00:07:02;3.90;99.90
19781;DHT22;10050;55.492;13.506;2023-05-07T00:09:28;3.90;99.90
19781;DHT22;10050;55.492;13.506;2023-05-07T00:11:54;3.90;99.90
19781;DHT22;10050;55.492;13.506;2023-05-07T00:14:19;3.90;99.90
19781;DHT22;10050;55.492;13.506;2023-05-07T00:16:46;3.90;99.90
19781;DHT22;10050;55.492;13.506;2023-05-07T00:19:12;3.90;99.90
19781;DHT22;10050;55.492;13.506;2023-05-07T00:21:37;3.90;99.90
19781;DHT22;10050;55.492;13.506;2023-05-07T00:24:03;3.90;99.90
19781;DHT22;10050;55.492;13.506;2023-05-07T00:26:29;3.90;99.90
19781;DHT22;10050;55.492;13.506;2023-05-07T00:28:55;3.80;99.90
19781;DHT22;10050;55.492;13.506;2023-05-07T00:31:20;3.80;99.90
19781;DHT22;10050;55.492;13.506;2023-05-07T00:33:46;3.90;99.90
19781;DHT22;10050;55.492;13.506;2023-05-07T00:36:12;3.90;99.90
19781;DHT22;10050;55.492;13.506;2023-05-07T00:38:37;3.80;99.90
19781;DHT22;10050;55.492;13.506;2023-05-07T00:41:03;3.80;99.90
19781;DHT22;10050;55.492;13.506;2023-05-07T00:43:29;3.80;99.90
19781;DHT22;10050;55.492;13.506;2023-05-07T00:45:55;3.80;99.90
19781;DHT22;10050;55.492;13.506;2023-05-07T00:48:21;3.90;99.90
19781;DHT22;10050;55.492;13.506;2023-05-07T00:50:47;3.80;99.90
19781;DHT22;10050;55.492;13.506;2023-05-07T00:53:14;3.80;99.90
19781;DHT22;10050;55.492;13.506;2023-05-07T00:55:39;3.80;99.90
19781;DHT22;10050;55.492;13.506;2023-05-07T00:58:06;3.80;99.90
19781;DHT22;10050;55.492;13.506;2023-05-07T01:00:31;3.80;99.90
19781;DHT22;10050;55.492;13.506;2023-05-07T01:02:57;3.80;99.90
19781;DHT22;10050;55.492;13.506;2023-05-07T01:05:24;3.80;99.90
19781;DHT22;10050;55.492;13.506;2023-05-07T01:07:52;3.90;99.90
19781;DHT22;10050;55.492;13.506;2023-05-07T01:10:19;3.80;99.90
19781;DHT22;10050;55.492;13.506;2023-05-07T01:12:45;3.80;99.90
19781;DHT22;10050;55.492;13.506;2023-05-07T01:15:12;3.80;99.90
19781;DHT22;10050;55.492;13.506;2023-05-07T01:17:40;3.80;99.90
19781;DHT22;10050;55.492;13.506;2023-05-07T01:20:07;3.80;99.90
19781;DHT22;10050;55.492;13.506;2023-05-07T01:22:34;3.80;99.90
19781;DHT22;10050;55.492;13.506;2023-05-07T01:25:05;3.80;99.90
19781;DHT22;10050;55.492;13.506;2023-05-07T01:27:32;3.80;99.90
19781;DHT22;10050;55.492;13.506;2023-05-07T01:29:59;3.80;99.90
19781;DHT22;10050;55.492;13.506;2023-05-07T01:32:32;3.90;99.90
19781;DHT22;10050;55.492;13.506;2023-05-07T01:35:00;3.90;99.90
19781;DHT22;10050;55.492;13.506;2023-05-07T01:37:26;3.90;99.90
19781;DHT22;10050;55.492;13.506;2023-05-07T01:39:53;3.90;99.90
19781;DHT22;10050;55.492;13.506;2023-05-07T01:42:19;3.90;99.90
19781;DHT22;10050;55.492;13.506;2023-05-07T01:44:45;3.90;99.90
19781;DHT22;10050;55.492;13.506;2023-05-07T01:47:12;3.90;99.90
19781;DHT22;10050;55.492;13.506;2023-05-07T01:49:39;4.00;99.90
19781;DHT22;10050;55.492;13.506;2023-05-07T01:52:05;4.00;99.90
19781;DHT22;10050;55.492;13.506;2023-05-07T01:54:31;4.00;99.90
19781;DHT22;10050;55.492;13.506;2023-05-07T01:56:57;4.10;99.90
19781;DHT22;10050;55.492;13.506;2023-05-07T01:59:22;4.00;99.90
19781;DHT22;10050;55.492;13.506;2023-05-07T02:01:48;4.10;99.90
19781;DHT22;10050;55.492;13.506;2023-05-07T02:04:14;4.10;99.90
19781;DHT22;10050;55.492;13.506;2023-05-07T02:06:40;4.10;99.90
19781;DHT22;10050;55.492;13.506;2023-05-07T02:09:05;4.00;99.90
19781;DHT22;10050;55.492;13.506;2023-05-07T02:11:31;4.00;99.90
19781;DHT22;10050;55.492;13.506;2023-05-07T02:13:57;4.00;99.90
19781;DHT22;10050;55.492;13.506;2023-05-07T02:16:22;3.90;99.90
19781;DHT22;10050;55.492;13.506;2023-05-07T02:18:49;4.00;99.90
19781;DHT22;10050;55.492;13.506;2023-05-07T02:21:14;4.00;99.90
19781;DHT22;10050;55.492;13.506;2023-05-07T02:23:40;3.90;99.90
19781;DHT22;10050;55.492;13.506;2023-05-07T02:26:06;3.90;99.90
19781;DHT22;10050;55.492;13.506;2023-05-07T02:28:31;3.90;99.90
19781;DHT22;10050;55.492;13.506;2023-05-07T02:30:57;3.90;99.90
19781;DHT22;10050;55.492;13.506;2023-05-07T02:33:25;3.90;99.90
19781;DHT22;10050;55.492;13.506;2023-05-07T02:35:50;3.90;99.90
19781;DHT22;10050;55.492;13.506;2023-05-07T02:38:17;3.90;99.90
19781;DHT22;10050;55.492;13.506;2023-05-07T02:40:43;3.90;99.90
19781;DHT22;10050;55.492;13.506;2023-05-07T02:43:09;3.90;99.90
19781;DHT22;10050;55.492;13.506;2023-05-07T02:45:35;3.90;99.90
19781;DHT22;10050;55.492;13.506;2023-05-07T02:48:01;3.90;99.90
19781;DHT22;10050;55.492;13.506;2023-05-07T02:50:27;3.90;99.90
19781;DHT22;10050;55.492;13.506;2023-05-07T02:52:52;3.90;99.90
19781;DHT22;10050;55.492;13.506;2023-05-07T02:55:18;3.90;99.90
19781;DHT22;10050;55.492;13.506;2023-05-07T02:57:44;3.90;99.90
19781;DHT22;10050;55.492;13.506;2023-05-07T03:00:11;3.90;99.90
19781;DHT22;10050;55.492;13.506;2023-05-07T03:02:37;3.80;99.90
19781;DHT22;10050;55.492;13.506;2023-05-07T03:05:03;3.80;99.90
19781;DHT22;10050;55.492;13.506;2023-05-07T03:07:29;3.90;99.90
19781;DHT22;10050;55.492;13.506;2023-05-07T03:09:54;3.90;99.90
19781;DHT22;10050;55.492;13.506;2023-05-07T03:12:20;3.90;99.90
19781;DHT22;10050;55.492;13.506;2023-05-07T03:14:46;3.90;99.90
19781;DHT22;10050;55.492;13.506;2023-05-07T03:17:11;3.90;99.90
19781;DHT22;10050;55.492;13.506;2023-05-07T03:19:37;3.90;99.90
19781;DHT22;10050;55.492;13.506;2023-05-07T03:22:02;3.90;99.90
19781;DHT22;10050;55.492;13.506;2023-05-07T03:24:28;3.90;99.90
19781;DHT22;10050;55.492;13.506;2023-05-07T03:26:54;3.90;99.90
19781;DHT22;10050;55.492;13.506;2023-05-07T03:29:19;4.00;99.90
19781;DHT22;10050;55.492;13.506;2023-05-07T03:31:45;3.90;99.90
19781;DHT22;10050;55.492;13.506;2023-05-07T03:34:11;3.90;99.90
19781;DHT22;10050;55.492;13.506;2023-05-07T03:36:37;4.00;99.90
19781;DHT22;10050;55.492;13.506;2023-05-07T03:39:02;4.00;99.90
19781;DHT22;10050;55.492;13.506;2023-05-07T03:41:28;4.00;99.90
19781;DHT22;10050;55.492;13.506;2023-05-07T03:43:55;4.00;99.90
19781;DHT22;10050;55.492;13.506;2023-05-07T03:46:20;4.10;99.90
19781;DHT22;10050;55.492;13.506;2023-05-07T03:48:46;4.10;99.90
19781;DHT22;10050;55.492;13.506;2023-05-07T03:51:12;4.10;99.90
19781;DHT22;10050;55.492;13.506;2023-05-07T03:53:37;4.20;99.90
19781;DHT22;10050;55.492;13.506;2023-05-07T03:56:03;4.20;99.90
19781;DHT22;10050;55.492;13.506;2023-05-07T03:58:29;4.30;99.90
19781;DHT22;10050;55.492;13.506;2023-05-07T04:00:54;4.30;99.90
19781;DHT22;10050;55.492;13.506;2023-05-07T04:03:20;4.30;99.90
19781;DHT22;10050;55.492;13.506;2023-05-07T04:05:46;4.40;99.90
19781;DHT22;10050;55.492;13.506;2023-05-07T04:08:12;4.50;99.90
19781;DHT22;10050;55.492;13.506;2023-05-07T04:10:37;4.50;99.90
19781;DHT22;10050;55.492;13.506;2023-05-07T04:13:03;4.70;99.90
19781;DHT22;10050;55.492;13.506;2023-05-07T04:15:29;4.80;99.90
19781;DHT22;10050;55.492;13.506;2023-05-07T04:17:54;4.90;99.90
19781;DHT22;10050;55.492;13.506;2023-05-07T04:20:20;4.90;99.90
19781;DHT22;10050;55.492;13.506;2023-05-07T04:22:46;5.00;99.90
19781;DHT22;10050;55.492;13.506;2023-05-07T04:25:11;5.10;99.90
19781;DHT22;10050;55.492;13.506;2023-05-07T04:27:37;5.20;99.90
19781;DHT22;10050;55.492;13.506;2023-05-07T04:30:03;5.30;99.90
19781;DHT22;10050;55.492;13.506;2023-05-07T04:32:29;5.40;99.90
19781;DHT22;10050;55.492;13.506;2023-05-07T04:34:56;5.50;99.90
19781;DHT22;10050;55.492;13.506;2023-05-07T04:37:22;5.50;99.90
19781;DHT22;10050;55.492;13.506;2023-05-07T04:39:48;5.50;99.90
19781;DHT22;10050;55.492;13.506;2023-05-07T04:42:17;5.60;99.90
19781;DHT22;10050;55.492;13.506;2023-05-07T04:44:46;5.70;99.90
19781;DHT22;10050;55.492;13.506;2023-05-07T04:47:12;5.70;99.90
19781;DHT22;10050;55.492;13.506;2023-05-07T04:49:40;5.70;99.90
19781;DHT22;10050;55.492;13.506;2023-05-07T04:52:06;5.80;99.90
19781;DHT22;10050;55.492;13.506;2023-05-07T04:54:32;5.80;99.90
19781;DHT22;10050;55.492;13.506;2023-05-07T04:56:57;5.90;99.90
19781;DHT22;10050;55.492;13.506;2023-05-07T04:59:23;5.90;99.90
19781;DHT22;10050;55.492;13.506;2023-05-07T05:01:49;6.00;99.90
19781;DHT22;10050;55.492;13.506;2023-05-07T05:04:14;6.00;99.90
19781;DHT22;10050;55.492;13.506;2023-05-07T05:06:40;6.10;99.90
19781;DHT22;10050;55.492;13.506;2023-05-07T05:09:06;6.20;99.90
19781;DHT22;10050;55.492;13.506;2023-05-07T05:11:32;6.20;99.90
19781;DHT22;10050;55.492;13.506;2023-05-07T05:13:59;6.30;99.90
19781;DHT22;10050;55.492;13.506;2023-05-07T05:16:24;6.30;99.90
19781;DHT22;10050;55.492;13.506;2023-05-07T05:18:50;6.40;99.90
19781;DHT22;10050;55.492;13.506;2023-05-07T05:21:17;6.40;99.90
19781;DHT22;10050;55.492;13.506;2023-05-07T05:23:43;6.50;99.90
19781;DHT22;10050;55.492;13.506;2023-05-07T05:26:09;6.60;99.90
19781;DHT22;10050;55.492;13.506;2023-05-07T05:28:34;6.60;99.90
19781;DHT22;10050;55.492;13.506;2023-05-07T05:31:00;6.70;99.90
19781;DHT22;10050;55.492;13.506;2023-05-07T05:33:25;6.80;99.90
19781;DHT22;10050;55.492;13.506;2023-05-07T05:35:51;6.90;99.90
19781;DHT22;10050;55.492;13.506;2023-05-07T05:38:17;6.90;99.90
19781;DHT22;10050;55.492;13.506;2023-05-07T05:40:42;7.00;99.90
19781;DHT22;10050;55.492;13.506;2023-05-07T05:43:08;7.10;99.90
19781;DHT22;10050;55.492;13.506;2023-05-07T05:45:33;7.10;99.90
19781;DHT22;10050;55.492;13.506;2023-05-07T05:47:59;7.20;99.90
19781;DHT22;10050;55.492;13.506;2023-05-07T05:50:25;7.30;99.90
19781;DHT22;10050;55.492;13.506;2023-05-07T05:52:51;7.50;99.90
19781;DHT22;10050;55.492;13.506;2023-05-07T05:55:16;7.60;99.90
19781;DHT22;10050;55.492;13.506;2023-05-07T05:57:42;7.70;99.90
19781;DHT22;10050;55.492;13.506;2023-05-07T06:00:08;7.80;99.90
19781;DHT22;10050;55.492;13.506;2023-05-07T06:02:34;7.90;99.90
19781;DHT22;10050;55.492;13.506;2023-05-07T06:05:00;8.00;99.90
19781;DHT22;10050;55.492;13.506;2023-05-07T06:07:25;8.10;99.90
19781;DHT22;10050;55.492;13.506;2023-05-07T06:09:51;8.30;99.90
19781;DHT22;10050;55.492;13.506;2023-05-07T06:12:17;8.50;99.90
19781;DHT22;10050;55.492;13.506;2023-05-07T06:14:43;8.70;99.90
19781;DHT22;10050;55.492;13.506;2023-05-07T06:17:09;9.20;99.90
19781;DHT22;10050;55.492;13.506;2023-05-07T06:19:35;9.70;99.90
19781;DHT22;10050;55.492;13.506;2023-05-07T06:22:01;10.30;99.90
19781;DHT22;10050;55.492;13.506;2023-05-07T06:24:28;10.70;99.90
19781;DHT22;10050;55.492;13.506;2023-05-07T06:26:54;11.10;99.90
19781;DHT22;10050;55.492;13.506;2023-05-07T06:29:20;11.60;99.90
19781;DHT22;10050;55.492;13.506;2023-05-07T06:31:45;11.70;99.90
19781;DHT22;10050;55.492;13.506;2023-05-07T06:34:11;11.90;99.90
19781;DHT22;10050;55.492;13.506;2023-05-07T06:36:40;12.00;99.90
19781;DHT22;10050;55.492;13.506;2023-05-07T06:39:06;12.10;99.90
19781;DHT22;10050;55.492;13.506;2023-05-07T06:41:32;12.40;99.90
19781;DHT22;10050;55.492;13.506;2023-05-07T06:43:57;12.60;99.90
19781;DHT22;10050;55.492;13.506;2023-05-07T06:46:23;12.60;99.90
19781;DHT22;10050;55.492;13.506;2023-05-07T06:48:49;12.70;99.90
19781;DHT22;10050;55.492;13.506;2023-05-07T06:51:14;12.90;99.90
19781;DHT22;10050;55.492;13.506;2023-05-07T06:53:40;13.20;99.90
19781;DHT22;10050;55.492;13.506;2023-05-07T06:56:06;13.10;99.90
19781;DHT22;10050;55.492;13.506;2023-05-07T06:58:32;13.30;99.90
19781;DHT22;10050;55.492;13.506;2023-05-07T07:00:57;13.60;99.90
19781;DHT22;10050;55.492;13.506;2023-05-07T07:03:23;13.70;99.90
19781;DHT22;10050;55.492;13.506;2023-05-07T07:05:52;13.80;99.90
19781;DHT22;10050;55.492;13.506;2023-05-07T07:08:18;14.00;99.90
19781;DHT22;10050;55.492;13.506;2023-05-07T07:10:44;13.90;99.90
19781;DHT22;10050;55.492;13.506;2023-05-07T07:13:09;14.20;99.90
19781;DHT22;10050;55.492;13.506;2023-05-07T07:15:35;14.50;99.90
19781;DHT22;10050;55.492;13.506;2023-05-07T07:18:00;14.70;99.90
19781;DHT22;10050;55.492;13.506;2023-05-07T07:20:26;14.60;99.90
19781;DHT22;10050;55.492;13.506;2023-05-07T07:22:52;14.80;99.90
19781;DHT22;10050;55.492;13.506;2023-05-07T07:25:17;14.80;99.90
19781;DHT22;10050;55.492;13.506;2023-05-07T07:27:46;14.80;99.90
19781;DHT22;10050;55.492;13.506;2023-05-07T07:30:12;15.00;99.90
19781;DHT22;10050;55.492;13.506;2023-05-07T07:32:37;14.90;99.90
19781;DHT22;10050;55.492;13.506;2023-05-07T07:35:03;15.10;99.90
19781;DHT22;10050;55.492;13.506;2023-05-07T07:37:30;15.60;99.90
19781;DHT22;10050;55.492;13.506;2023-05-07T07:39:55;15.80;99.90
19781;DHT22;10050;55.492;13.506;2023-05-07T07:42:21;16.10;99.90
19781;DHT22;10050;55.492;13.506;2023-05-07T07:44:48;16.40;99.90
19781;DHT22;10050;55.492;13.506;2023-05-07T07:47:14;16.30;99.90
19781;DHT22;10050;55.492;13.506;2023-05-07T07:49:39;16.20;99.90
19781;DHT22;10050;55.492;13.506;2023-05-07T07:52:05;16.30;99.90
19781;DHT22;10050;55.492;13.506;2023-05-07T07:54:31;16.60;99.90
19781;DHT22;10050;55.492;13.506;2023-05-07T07:56:56;16.70;99.90
19781;DHT22;10050;55.492;13.506;2023-05-07T07:59:22;16.70;99.90
19781;DHT22;10050;55.492;13.506;2023-05-07T08:01:48;16.90;99.90
19781;DHT22;10050;55.492;13.506;2023-05-07T08:04:15;16.80;99.90
19781;DHT22;10050;55.492;13.506;2023-05-07T08:06:41;17.00;99.90
19781;DHT22;10050;55.492;13.506;2023-05-07T08:09:07;16.90;99.90
19781;DHT22;10050;55.492;13.506;2023-05-07T08:11:33;17.00;99.90
19781;DHT22;10050;55.492;13.506;2023-05-07T08:13:59;16.90;99.90
19781;DHT22;10050;55.492;13.506;2023-05-07T08:16:25;17.00;99.90
19781;DHT22;10050;55.492;13.506;2023-05-07T08:18:51;17.40;99.90
19781;DHT22;10050;55.492;13.506;2023-05-07T08:21:17;17.50;99.90
19781;DHT22;10050;55.492;13.506;2023-05-07T08:23:42;17.20;99.90
19781;DHT22;10050;55.492;13.506;2023-05-07T08:26:11;17.20;99.90
19781;DHT22;10050;55.492;13.506;2023-05-07T08:28:37;17.20;99.90
19781;DHT22;10050;55.492;13.506;2023-05-07T08:31:02;17.40;99.90
19781;DHT22;10050;55.492;13.506;2023-05-07T08:33:28;17.50;99.90
19781;DHT22;10050;55.492;13.506;2023-05-07T08:35:53;17.40;99.90
19781;DHT22;10050;55.492;13.506;2023-05-07T08:38:19;17.50;99.90
19781;DHT22;10050;55.492;13.506;2023-05-07T08:40:45;17.60;99.90
19781;DHT22;10050;55.492;13.506;2023-05-07T08:43:13;17.20;99.90
19781;DHT22;10050;55.492;13.506;2023-05-07T08:45:40;17.40;99.90
19781;DHT22;10050;55.492;13.506;2023-05-07T08:48:16;17.80;99.90
19781;DHT22;10050;55.492;13.506;2023-05-07T08:50:42;17.80;99.90
19781;DHT22;10050;55.492;13.506;2023-05-07T08:53:08;17.80;99.90
19781;DHT22;10050;55.492;13.506;2023-05-07T08:55:34;17.70;99.90
19781;DHT22;10050;55.492;13.506;2023-05-07T08:58:00;18.00;99.90
19781;DHT22;10050;55.492;13.506;2023-05-07T09:00:26;18.20;99.90
19781;DHT22;10050;55.492;13.506;2023-05-07T09:02:53;18.10;99.90
19781;DHT22;10050;55.492;13.506;2023-05-07T09:05:19;18.50;99.90
19781;DHT22;10050;55.492;13.506;2023-05-07T09:07:45;18.30;99.90
19781;DHT22;10050;55.492;13.506;2023-05-07T09:10:12;18.30;99.90
19781;DHT22;10050;55.492;13.506;2023-05-07T09:12:39;18.10;99.90
19781;DHT22;10050;55.492;13.506;2023-05-07T09:15:05;17.60;99.90
19781;DHT22;10050;55.492;13.506;2023-05-07T09:17:31;17.40;99.90
19781;DHT22;10050;55.492;13.506;2023-05-07T09:20:02;17.50;99.90
19781;DHT22;10050;55.492;13.506;2023-05-07T09:22:32;17.70;99.90
19781;DHT22;10050;55.492;13.506;2023-05-07T09:24:57;17.80;99.90
19781;DHT22;10050;55.492;13.506;2023-05-07T09:27:23;17.80;99.90
19781;DHT22;10050;55.492;13.506;2023-05-07T09:29:49;17.00;99.90
19781;DHT22;10050;55.492;13.506;2023-05-07T09:32:15;16.60;99.90
19781;DHT22;10050;55.492;13.506;2023-05-07T09:34:42;16.90;99.90
19781;DHT22;10050;55.492;13.506;2023-05-07T09:37:07;16.60;99.90
19781;DHT22;10050;55.492;13.506;2023-05-07T09:39:47;15.70;99.90
19781;DHT22;10050;55.492;13.506;2023-05-07T09:42:13;15.90;99.90
19781;DHT22;10050;55.492;13.506;2023-05-07T09:44:43;16.00;99.90
19781;DHT22;10050;55.492;13.506;2023-05-07T09:47:10;15.70;99.90
19781;DHT22;10050;55.492;13.506;2023-05-07T09:49:39;16.40;99.90
19781;DHT22;10050;55.492;13.506;2023-05-07T09:52:07;16.20;99.90
19781;DHT22;10050;55.492;13.506;2023-05-07T09:54:35;15.90;99.90
19781;DHT22;10050;55.492;13.506;2023-05-07T09:57:04;16.40;99.90
19781;DHT22;10050;55.492;13.506;2023-05-07T09:59:32;16.00;99.90
19781;DHT22;10050;55.492;13.506;2023-05-07T10:01:59;16.10;99.90
19781;DHT22;10050;55.492;13.506;2023-05-07T10:04:26;16.70;99.90
19781;DHT22;10050;55.492;13.506;2023-05-07T10:06:52;17.40;98.30
19781;DHT22;10050;55.492;13.506;2023-05-07T10:09:18;17.60;99.00
19781;DHT22;10050;55.492;13.506;2023-05-07T10:11:43;17.90;99.90
19781;DHT22;10050;55.492;13.506;2023-05-07T10:14:10;17.70;96.10
19781;DHT22;10050;55.492;13.506;2023-05-07T10:16:36;17.80;95.30
19781;DHT22;10050;55.492;13.506;2023-05-07T10:19:07;17.80;95.60
19781;DHT22;10050;55.492;13.506;2023-05-07T10:21:36;17.40;94.70
19781;DHT22;10050;55.492;13.506;2023-05-07T10:24:13;17.40;97.60
19781;DHT22;10050;55.492;13.506;2023-05-07T10:26:46;17.20;94.70
19781;DHT22;10050;55.492;13.506;2023-05-07T10:35:01;17.50;96.40
19781;DHT22;10050;55.492;13.506;2023-05-07T10:37:28;17.60;95.00
19781;DHT22;10050;55.492;13.506;2023-05-07T10:39:54;17.90;97.00
19781;DHT22;10050;55.492;13.506;2023-05-07T10:42:20;17.70;93.90
19781;DHT22;10050;55.492;13.506;2023-05-07T10:44:46;17.50;93.90
19781;DHT22;10050;55.492;13.506;2023-05-07T10:47:13;17.60;95.90
19781;DHT22;10050;55.492;13.506;2023-05-07T10:52:20;17.50;96.90
19781;DHT22;10050;55.492;13.506;2023-05-07T10:54:47;17.90;98.60
19781;DHT22;10050;55.492;13.506;2023-05-07T10:57:35;18.10;96.80
19781;DHT22;10050;55.492;13.506;2023-05-07T11:05:29;16.80;97.10
19781;DHT22;10050;55.492;13.506;2023-05-07T11:08:00;16.90;99.30
19781;DHT22;10050;55.492;13.506;2023-05-07T11:13:14;16.70;99.00
19781;DHT22;10050;55.492;13.506;2023-05-07T11:15:47;16.30;96.60
19781;DHT22;10050;55.492;13.506;2023-05-07T11:18:17;16.50;99.10
19781;DHT22;10050;55.492;13.506;2023-05-07T11:20:54;16.70;97.50
19781;DHT22;10050;55.492;13.506;2023-05-07T11:26:05;16.90;96.80
19781;DHT22;10050;55.492;13.506;2023-05-07T11:28:36;16.80;97.70
19781;DHT22;10050;55.492;13.506;2023-05-07T11:31:03;16.80;95.90
19781;DHT22;10050;55.492;13.506;2023-05-07T11:33:32;16.70;95.20
19781;DHT22;10050;55.492;13.506;2023-05-07T11:35:59;16.30;97.00
19781;DHT22;10050;55.492;13.506;2023-05-07T11:38:25;16.30;98.10
19781;DHT22;10050;55.492;13.506;2023-05-07T11:40:59;16.20;98.10
19781;DHT22;10050;55.492;13.506;2023-05-07T11:43:28;16.40;99.40
19781;DHT22;10050;55.492;13.506;2023-05-07T11:46:04;16.60;98.30
19781;DHT22;10050;55.492;13.506;2023-05-07T11:48:30;16.40;98.00
19781;DHT22;10050;55.492;13.506;2023-05-07T11:53:25;16.20;98.10
19781;DHT22;10050;55.492;13.506;2023-05-07T11:55:57;16.10;96.10
19781;DHT22;10050;55.492;13.506;2023-05-07T11:58:24;15.90;97.30
19781;DHT22;10050;55.492;13.506;2023-05-07T12:00:54;16.00;99.00
19781;DHT22;10050;55.492;13.506;2023-05-07T12:03:20;16.10;98.20
19781;DHT22;10050;55.492;13.506;2023-05-07T12:05:47;16.20;99.10
19781;DHT22;10050;55.492;13.506;2023-05-07T12:08:19;16.20;97.20
19781;DHT22;10050;55.492;13.506;2023-05-07T12:10:50;16.20;98.50
19781;DHT22;10050;55.492;13.506;2023-05-07T12:13:26;16.30;97.70
19781;DHT22;10050;55.492;13.506;2023-05-07T12:15:52;16.50;98.40
19781;DHT22;10050;55.492;13.506;2023-05-07T12:18:18;16.50;95.60
19781;DHT22;10050;55.492;13.506;2023-05-07T12:20:45;16.70;96.30
19781;DHT22;10050;55.492;13.506;2023-05-07T12:23:12;16.40;95.20
19781;DHT22;10050;55.492;13.506;2023-05-07T12:25:38;16.30;95.70
19781;DHT22;10050;55.492;13.506;2023-05-07T12:28:05;16.20;96.20
19781;DHT22;10050;55.492;13.506;2023-05-07T12:30:40;16.30;96.10
19781;DHT22;10050;55.492;13.506;2023-05-07T12:33:07;16.40;97.20
19781;DHT22;10050;55.492;13.506;2023-05-07T12:35:41;16.60;98.10
19781;DHT22;10050;55.492;13.506;2023-05-07T12:38:12;16.40;96.50
19781;DHT22;10050;55.492;13.506;2023-05-07T12:40:40;16.40;96.30
19781;DHT22;10050;55.492;13.506;2023-05-07T12:43:06;16.40;96.90
19781;DHT22;10050;55.492;13.506;2023-05-07T12:45:37;16.50;96.30
19781;DHT22;10050;55.492;13.506;2023-05-07T12:48:03;16.60;96.50
19781;DHT22;10050;55.492;13.506;2023-05-07T12:50:33;16.60;94.70
19781;DHT22;10050;55.492;13.506;2023-05-07T12:52:59;16.30;95.20
19781;DHT22;10050;55.492;13.506;2023-05-07T12:55:28;16.30;95.60
19781;DHT22;10050;55.492;13.506;2023-05-07T12:57:54;16.20;94.90
19781;DHT22;10050;55.492;13.506;2023-05-07T13:00:36;16.00;95.30
19781;DHT22;10050;55.492;13.506;2023-05-07T13:03:02;16.10;95.40
19781;DHT22;10050;55.492;13.506;2023-05-07T13:05:28;16.10;94.90
19781;DHT22;10050;55.492;13.506;2023-05-07T13:07:55;16.40;96.10
19781;DHT22;10050;55.492;13.506;2023-05-07T13:10:22;16.40;95.30
19781;DHT22;10050;55.492;13.506;2023-05-07T13:12:49;16.40;94.10
19781;DHT22;10050;55.492;13.506;2023-05-07T13:15:14;16.40;95.50
19781;DHT22;10050;55.492;13.506;2023-05-07T13:17:40;16.50;94.20
19781;DHT22;10050;55.492;13.506;2023-05-07T13:20:06;16.50;94.90
19781;DHT22;10050;55.492;13.506;2023-05-07T13:22:33;16.10;93.70
19781;DHT22;10050;55.492;13.506;2023-05-07T13:24:59;16.20;94.70
19781;DHT22;10050;55.492;13.506;2023-05-07T13:27:25;16.00;94.10
19781;DHT22;10050;55.492;13.506;2023-05-07T13:29:51;16.20;94.90
19781;DHT22;10050;55.492;13.506;2023-05-07T13:32:17;16.30;94.40
19781;DHT22;10050;55.492;13.506;2023-05-07T13:34:42;16.10;94.00
19781;DHT22;10050;55.492;13.506;2023-05-07T13:37:08;16.20;94.00
19781;DHT22;10050;55.492;13.506;2023-05-07T13:39:33;16.20;93.10
19781;DHT22;10050;55.492;13.506;2023-05-07T13:41:59;16.20;93.00
19781;DHT22;10050;55.492;13.506;2023-05-07T13:44:25;16.20;93.00
19781;DHT22;10050;55.492;13.506;2023-05-07T13:46:51;16.00;92.30
19781;DHT22;10050;55.492;13.506;2023-05-07T13:49:17;15.70;92.80
19781;DHT22;10050;55.492;13.506;2023-05-07T13:51:45;15.80;92.80
19781;DHT22;10050;55.492;13.506;2023-05-07T13:54:11;15.80;93.60
19781;DHT22;10050;55.492;13.506;2023-05-07T13:56:37;15.90;92.60
19781;DHT22;10050;55.492;13.506;2023-05-07T13:59:03;15.70;92.30
19781;DHT22;10050;55.492;13.506;2023-05-07T14:01:28;15.90;91.90
19781;DHT22;10050;55.492;13.506;2023-05-07T14:03:56;15.90;92.70
19781;DHT22;10050;55.492;13.506;2023-05-07T14:06:22;15.50;92.30
19781;DHT22;10050;55.492;13.506;2023-05-07T14:08:47;15.60;92.80
19781;DHT22;10050;55.492;13.506;2023-05-07T14:11:13;15.70;93.90
19781;DHT22;10050;55.492;13.506;2023-05-07T14:13:41;15.40;92.30
19781;DHT22;10050;55.492;13.506;2023-05-07T14:16:07;15.40;93.30
19781;DHT22;10050;55.492;13.506;2023-05-07T14:18:33;15.40;91.90
19781;DHT22;10050;55.492;13.506;2023-05-07T14:21:00;15.40;91.80
19781;DHT22;10050;55.492;13.506;2023-05-07T14:23:25;15.30;92.20
19781;DHT22;10050;55.492;13.506;2023-05-07T14:25:52;15.30;90.30
19781;DHT22;10050;55.492;13.506;2023-05-07T14:28:18;15.20;91.40
19781;DHT22;10050;55.492;13.506;2023-05-07T14:30:44;15.20;91.10
19781;DHT22;10050;55.492;13.506;2023-05-07T14:33:10;15.10;91.40
19781;DHT22;10050;55.492;13.506;2023-05-07T14:35:36;15.00;91.70
19781;DHT22;10050;55.492;13.506;2023-05-07T14:38:01;15.00;91.60
19781;DHT22;10050;55.492;13.506;2023-05-07T14:40:27;15.10;91.80
19781;DHT22;10050;55.492;13.506;2023-05-07T14:42:53;15.20;92.80
19781;DHT22;10050;55.492;13.506;2023-05-07T14:45:20;15.20;92.50
19781;DHT22;10050;55.492;13.506;2023-05-07T14:47:46;14.90;92.80
19781;DHT22;10050;55.492;13.506;2023-05-07T14:50:11;15.10;92.70
19781;DHT22;10050;55.492;13.506;2023-05-07T14:52:37;15.10;93.00
19781;DHT22;10050;55.492;13.506;2023-05-07T14:55:03;15.20;93.40
19781;DHT22;10050;55.492;13.506;2023-05-07T14:57:29;15.10;94.50
19781;DHT22;10050;55.492;13.506;2023-05-07T14:59:55;15.10;95.20
19781;DHT22;10050;55.492;13.506;2023-05-07T15:02:21;15.10;96.30
19781;DHT22;10050;55.492;13.506;2023-05-07T15:04:46;15.00;95.20
19781;DHT22;10050;55.492;13.506;2023-05-07T15:07:13;14.90;96.30
19781;DHT22;10050;55.492;13.506;2023-05-07T15:09:42;14.90;95.80
19781;DHT22;10050;55.492;13.506;2023-05-07T15:12:07;14.70;95.70
19781;DHT22;10050;55.492;13.506;2023-05-07T15:14:34;14.70;96.00
19781;DHT22;10050;55.492;13.506;2023-05-07T15:17:00;14.70;96.00
19781;DHT22;10050;55.492;13.506;2023-05-07T15:19:25;14.80;94.20
19781;DHT22;10050;55.492;13.506;2023-05-07T15:21:55;14.70;95.70
19781;DHT22;10050;55.492;13.506;2023-05-07T15:24:22;14.60;96.90
19781;DHT22;10050;55.492;13.506;2023-05-07T15:26:48;14.60;97.30
19781;DHT22;10050;55.492;13.506;2023-05-07T15:29:13;14.50;96.60
19781;DHT22;10050;55.492;13.506;2023-05-07T15:31:39;14.40;96.30
19781;DHT22;10050;55.492;13.506;2023-05-07T15:34:05;14.30;96.60
19781;DHT22;10050;55.492;13.506;2023-05-07T15:36:31;14.20;97.00
19781;DHT22;10050;55.492;13.506;2023-05-07T15:38:57;14.20;96.90
19781;DHT22;10050;55.492;13.506;2023-05-07T15:41:22;14.10;97.80